Main page
METAR-TAF:

METAR-TAF

Airports :

Altus Air Force Base

Altus, Oklahoma, United States

latitude: 34-39N, longitude: 099-16W, elevation: 1378 ft

Current weather observation

The report was made 51 minutes ago, at 19:55 UTC
Wind 12 mph from the East
Temperature 88°F
Humidity 49%
Pressure 30.08 in. Hg
Visibility: 10 miles
Broken clouds at a height of 7500 ft

METAR: KLTS 191955Z AUTO 10010KT 10SM BKN075 31/19 A3008 RMK AO2 DZE11 SLP167 P0000 T03050189 $

Time: 15:46 (20:46 UTC)


TAF: missing

Weather observations and forecasts of more than 4000 airports (METAR and TAF reports).

The available stations are represented by yellow and red dots on the map.

Hover mouse over dot to see the name of the station.

Then click to see weather observations and forecasts.

To change the map : click on the green buttons with a black cross to zoom in, on the green button with a dash to zoom out, or on the green arrows for adjacent maps.


METAR-TAF: